sensor_id;sensor_type;location;lat;lon;timestamp;P1;durP1;ratioP1;P2;durP2;ratioP2
53313;SDS011;39202;51.468;7.146;2023-02-15T00:01:46;2.13;;;2.03;;
53313;SDS011;39202;51.468;7.146;2023-02-15T00:06:49;2.08;;;1.98;;
53313;SDS011;39202;51.468;7.146;2023-02-15T00:11:51;2.50;;;2.40;;
53313;SDS011;39202;51.468;7.146;2023-02-15T00:16:54;2.00;;;1.90;;
53313;SDS011;39202;51.468;7.146;2023-02-15T00:21:59;2.50;;;2.30;;
53313;SDS011;39202;51.468;7.146;2023-02-15T00:27:01;2.15;;;2.05;;
53313;SDS011;39202;51.468;7.146;2023-02-15T00:32:04;2.30;;;2.20;;
53313;SDS011;39202;51.468;7.146;2023-02-15T00:37:06;2.25;;;2.15;;
53313;SDS011;39202;51.468;7.146;2023-02-15T00:42:08;2.10;;;2.00;;
53313;SDS011;39202;51.468;7.146;2023-02-15T00:47:11;2.20;;;2.10;;
53313;SDS011;39202;51.468;7.146;2023-02-15T00:52:13;2.38;;;2.28;;
53313;SDS011;39202;51.468;7.146;2023-02-15T00:57:15;2.17;;;2.08;;
53313;SDS011;39202;51.468;7.146;2023-02-15T01:02:18;2.25;;;2.15;;
53313;SDS011;39202;51.468;7.146;2023-02-15T01:07:19;2.13;;;2.03;;
53313;SDS011;39202;51.468;7.146;2023-02-15T01:12:21;2.50;;;2.40;;
53313;SDS011;39202;51.468;7.146;2023-02-15T01:17:24;2.45;;;2.30;;
53313;SDS011;39202;51.468;7.146;2023-02-15T01:22:26;2.28;;;2.17;;
53313;SDS011;39202;51.468;7.146;2023-02-15T01:27:28;2.50;;;2.30;;
53313;SDS011;39202;51.468;7.146;2023-02-15T01:32:37;2.40;;;2.30;;
53313;SDS011;39202;51.468;7.146;2023-02-15T01:37:39;2.30;;;2.20;;
53313;SDS011;39202;51.468;7.146;2023-02-15T01:42:41;2.50;;;2.30;;
53313;SDS011;39202;51.468;7.146;2023-02-15T01:47:45;2.75;;;2.55;;
53313;SDS011;39202;51.468;7.146;2023-02-15T01:52:51;2.17;;;2.08;;
53313;SDS011;39202;51.468;7.146;2023-02-15T01:57:56;2.40;;;2.30;;
53313;SDS011;39202;51.468;7.146;2023-02-15T02:03:00;2.47;;;2.35;;
53313;SDS011;39202;51.468;7.146;2023-02-15T02:08:03;2.28;;;2.17;;
53313;SDS011;39202;51.468;7.146;2023-02-15T02:13:05;2.42;;;2.30;;
53313;SDS011;39202;51.468;7.146;2023-02-15T02:18:13;2.50;;;2.30;;
53313;SDS011;39202;51.468;7.146;2023-02-15T02:23:32;2.50;;;2.40;;
53313;SDS011;39202;51.468;7.146;2023-02-15T02:28:47;2.47;;;2.30;;
53313;SDS011;39202;51.468;7.146;2023-02-15T02:34:21;2.40;;;2.30;;
53313;SDS011;39202;51.468;7.146;2023-02-15T02:39:28;2.25;;;2.15;;
53313;SDS011;39202;51.468;7.146;2023-02-15T02:44:39;2.40;;;2.20;;
53313;SDS011;39202;51.468;7.146;2023-02-15T02:49:45;2.58;;;2.42;;
53313;SDS011;39202;51.468;7.146;2023-02-15T02:54:47;2.35;;;2.15;;
53313;SDS011;39202;51.468;7.146;2023-02-15T02:59:49;2.45;;;2.35;;
53313;SDS011;39202;51.468;7.146;2023-02-15T03:04:55;2.25;;;2.15;;
53313;SDS011;39202;51.468;7.146;2023-02-15T03:10:04;2.40;;;2.30;;
53313;SDS011;39202;51.468;7.146;2023-02-15T03:15:08;2.38;;;2.20;;
53313;SDS011;39202;51.468;7.146;2023-02-15T03:20:16;2.28;;;2.17;;
53313;SDS011;39202;51.468;7.146;2023-02-15T03:25:26;2.38;;;2.28;;
53313;SDS011;39202;51.468;7.146;2023-02-15T03:30:32;2.35;;;2.25;;
53313;SDS011;39202;51.468;7.146;2023-02-15T03:35:39;2.20;;;2.10;;
53313;SDS011;39202;51.468;7.146;2023-02-15T03:40:45;2.40;;;2.20;;
53313;SDS011;39202;51.468;7.146;2023-02-15T03:46:06;2.22;;;2.13;;
53313;SDS011;39202;51.468;7.146;2023-02-15T03:51:18;2.25;;;2.15;;
53313;SDS011;39202;51.468;7.146;2023-02-15T03:56:35;2.60;;;2.40;;
53313;SDS011;39202;51.468;7.146;2023-02-15T04:01:39;2.13;;;2.03;;
53313;SDS011;39202;51.468;7.146;2023-02-15T04:07:00;2.05;;;1.95;;
53313;SDS011;39202;51.468;7.146;2023-02-15T04:12:02;2.10;;;2.00;;
53313;SDS011;39202;51.468;7.146;2023-02-15T04:17:05;2.38;;;2.28;;
53313;SDS011;39202;51.468;7.146;2023-02-15T04:22:09;2.42;;;2.30;;
53313;SDS011;39202;51.468;7.146;2023-02-15T04:27:28;2.15;;;2.05;;
53313;SDS011;39202;51.468;7.146;2023-02-15T04:32:30;2.28;;;2.17;;
53313;SDS011;39202;51.468;7.146;2023-02-15T04:37:33;2.35;;;2.15;;
53313;SDS011;39202;51.468;7.146;2023-02-15T04:42:34;2.20;;;2.10;;
53313;SDS011;39202;51.468;7.146;2023-02-15T04:47:36;1.98;;;1.88;;
53313;SDS011;39202;51.468;7.146;2023-02-15T04:52:39;1.90;;;1.80;;
53313;SDS011;39202;51.468;7.146;2023-02-15T04:57:41;2.20;;;2.10;;
53313;SDS011;39202;51.468;7.146;2023-02-15T05:02:43;2.30;;;2.20;;
53313;SDS011;39202;51.468;7.146;2023-02-15T05:07:46;2.00;;;1.90;;
53313;SDS011;39202;51.468;7.146;2023-02-15T05:12:47;1.98;;;1.88;;
53313;SDS011;39202;51.468;7.146;2023-02-15T05:17:49;1.92;;;1.83;;
53313;SDS011;39202;51.468;7.146;2023-02-15T05:22:54;2.10;;;2.00;;
53313;SDS011;39202;51.468;7.146;2023-02-15T05:27:55;2.10;;;2.00;;
53313;SDS011;39202;51.468;7.146;2023-02-15T05:33:15;1.80;;;1.70;;
53313;SDS011;39202;51.468;7.146;2023-02-15T05:38:19;2.03;;;1.92;;
53313;SDS011;39202;51.468;7.146;2023-02-15T05:43:21;1.83;;;1.73;;
53313;SDS011;39202;51.468;7.146;2023-02-15T05:48:24;1.83;;;1.73;;
53313;SDS011;39202;51.468;7.146;2023-02-15T05:53:28;2.00;;;1.90;;
53313;SDS011;39202;51.468;7.146;2023-02-15T05:58:32;1.98;;;1.88;;
53313;SDS011;39202;51.468;7.146;2023-02-15T06:03:35;2.10;;;2.00;;
53313;SDS011;39202;51.468;7.146;2023-02-15T06:08:38;1.65;;;1.60;;
53313;SDS011;39202;51.468;7.146;2023-02-15T06:13:40;1.83;;;1.73;;
53313;SDS011;39202;51.468;7.146;2023-02-15T06:18:41;1.75;;;1.65;;
53313;SDS011;39202;51.468;7.146;2023-02-15T06:23:44;1.85;;;1.75;;
53313;SDS011;39202;51.468;7.146;2023-02-15T06:28:46;2.05;;;1.95;;
53313;SDS011;39202;51.468;7.146;2023-02-15T06:33:48;2.05;;;1.95;;
53313;SDS011;39202;51.468;7.146;2023-02-15T06:38:51;2.00;;;1.90;;
53313;SDS011;39202;51.468;7.146;2023-02-15T06:43:52;1.95;;;1.85;;
53313;SDS011;39202;51.468;7.146;2023-02-15T06:48:54;1.70;;;1.63;;
53313;SDS011;39202;51.468;7.146;2023-02-15T06:53:57;1.88;;;1.77;;
53313;SDS011;39202;51.468;7.146;2023-02-15T06:58:59;1.90;;;1.75;;
53313;SDS011;39202;51.468;7.146;2023-02-15T07:04:02;2.03;;;1.92;;
53313;SDS011;39202;51.468;7.146;2023-02-15T07:09:05;1.80;;;1.70;;
53313;SDS011;39202;51.468;7.146;2023-02-15T07:14:06;2.00;;;1.90;;
53313;SDS011;39202;51.468;7.146;2023-02-15T07:19:08;2.15;;;2.05;;
53313;SDS011;39202;51.468;7.146;2023-02-15T07:24:11;2.33;;;1.85;;
53313;SDS011;39202;51.468;7.146;2023-02-15T07:29:13;1.90;;;1.80;;
53313;SDS011;39202;51.468;7.146;2023-02-15T07:34:15;2.47;;;1.80;;
53313;SDS011;39202;51.468;7.146;2023-02-15T07:39:18;2.53;;;1.70;;
53313;SDS011;39202;51.468;7.146;2023-02-15T07:44:20;3.20;;;1.48;;
53313;SDS011;39202;51.468;7.146;2023-02-15T07:49:22;1.58;;;1.48;;
53313;SDS011;39202;51.468;7.146;2023-02-15T07:54:25;2.20;;;1.60;;
53313;SDS011;39202;51.468;7.146;2023-02-15T07:59:27;1.45;;;1.40;;
53313;SDS011;39202;51.468;7.146;2023-02-15T08:04:28;1.58;;;1.48;;
53313;SDS011;39202;51.468;7.146;2023-02-15T08:09:32;1.38;;;1.33;;
53313;SDS011;39202;51.468;7.146;2023-02-15T08:14:34;1.50;;;1.40;;
53313;SDS011;39202;51.468;7.146;2023-02-15T08:19:36;4.47;;;4.03;;
53313;SDS011;39202;51.468;7.146;2023-02-15T08:24:39;3.33;;;3.13;;
53313;SDS011;39202;51.468;7.146;2023-02-15T08:29:41;2.83;;;2.63;;
53313;SDS011;39202;51.468;7.146;2023-02-15T08:34:43;3.33;;;2.20;;
53313;SDS011;39202;51.468;7.146;2023-02-15T08:39:46;2.40;;;2.25;;
53313;SDS011;39202;51.468;7.146;2023-02-15T08:44:48;2.00;;;1.90;;
53313;SDS011;39202;51.468;7.146;2023-02-15T08:49:50;2.00;;;1.90;;
53313;SDS011;39202;51.468;7.146;2023-02-15T08:54:54;2.03;;;1.92;;
53313;SDS011;39202;51.468;7.146;2023-02-15T08:59:55;3.00;;;1.60;;
53313;SDS011;39202;51.468;7.146;2023-02-15T09:04:57;1.70;;;1.60;;
53313;SDS011;39202;51.468;7.146;2023-02-15T09:10:00;1.90;;;1.80;;
53313;SDS011;39202;51.468;7.146;2023-02-15T09:15:02;1.92;;;1.73;;
53313;SDS011;39202;51.468;7.146;2023-02-15T09:20:05;1.70;;;1.60;;
53313;SDS011;39202;51.468;7.146;2023-02-15T09:25:09;1.85;;;1.75;;
53313;SDS011;39202;51.468;7.146;2023-02-15T09:30:13;1.65;;;1.55;;
53313;SDS011;39202;51.468;7.146;2023-02-15T09:35:15;2.10;;;1.90;;
53313;SDS011;39202;51.468;7.146;2023-02-15T09:40:19;2.10;;;1.90;;
53313;SDS011;39202;51.468;7.146;2023-02-15T09:45:25;2.25;;;2.15;;
53313;SDS011;39202;51.468;7.146;2023-02-15T09:50:33;2.30;;;2.10;;
53313;SDS011;39202;51.468;7.146;2023-02-15T09:55:48;1.98;;;1.88;;
53313;SDS011;39202;51.468;7.146;2023-02-15T10:00:58;3.00;;;2.28;;
53313;SDS011;39202;51.468;7.146;2023-02-15T10:06:19;2.00;;;1.80;;
53313;SDS011;39202;51.468;7.146;2023-02-15T10:11:36;1.92;;;1.77;;
53313;SDS011;39202;51.468;7.146;2023-02-15T10:16:52;1.80;;;1.70;;
53313;SDS011;39202;51.468;7.146;2023-02-15T10:22:03;2.15;;;2.00;;
53313;SDS011;39202;51.468;7.146;2023-02-15T10:27:15;2.38;;;1.70;;
53313;SDS011;39202;51.468;7.146;2023-02-15T10:32:21;1.77;;;1.67;;
53313;SDS011;39202;51.468;7.146;2023-02-15T10:37:31;1.70;;;1.60;;
53313;SDS011;39202;51.468;7.146;2023-02-15T10:42:48;2.58;;;1.52;;
53313;SDS011;39202;51.468;7.146;2023-02-15T10:48:12;1.73;;;1.63;;
53313;SDS011;39202;51.468;7.146;2023-02-15T10:53:31;1.75;;;1.65;;
53313;SDS011;39202;51.468;7.146;2023-02-15T10:58:49;1.85;;;1.73;;
53313;SDS011;39202;51.468;7.146;2023-02-15T11:09:42;1.50;;;1.40;;
53313;SDS011;39202;51.468;7.146;2023-02-15T11:14:50;1.70;;;1.60;;
53313;SDS011;39202;51.468;7.146;2023-02-15T11:19:58;1.90;;;1.80;;
53313;SDS011;39202;51.468;7.146;2023-02-15T11:25:14;2.30;;;2.10;;
53313;SDS011;39202;51.468;7.146;2023-02-15T11:30:21;2.50;;;2.30;;
53313;SDS011;39202;51.468;7.146;2023-02-15T11:35:26;3.33;;;2.55;;
53313;SDS011;39202;51.468;7.146;2023-02-15T11:40:32;2.75;;;2.20;;
53313;SDS011;39202;51.468;7.146;2023-02-15T11:45:37;2.58;;;2.20;;
53313;SDS011;39202;51.468;7.146;2023-02-15T11:50:44;2.20;;;2.10;;
53313;SDS011;39202;51.468;7.146;2023-02-15T11:55:46;2.47;;;2.28;;
53313;SDS011;39202;51.468;7.146;2023-02-15T12:00:52;2.40;;;2.20;;
53313;SDS011;39202;51.468;7.146;2023-02-15T12:05:58;2.00;;;1.90;;
53313;SDS011;39202;51.468;7.146;2023-02-15T12:11:05;2.40;;;2.20;;
53313;SDS011;39202;51.468;7.146;2023-02-15T12:16:13;2.47;;;2.28;;
53313;SDS011;39202;51.468;7.146;2023-02-15T12:21:15;3.78;;;2.40;;
53313;SDS011;39202;51.468;7.146;2023-02-15T12:26:26;3.40;;;2.20;;
53313;SDS011;39202;51.468;7.146;2023-02-15T12:31:32;5.13;;;2.00;;
53313;SDS011;39202;51.468;7.146;2023-02-15T12:36:40;2.00;;;1.90;;
53313;SDS011;39202;51.468;7.146;2023-02-15T12:41:48;1.88;;;1.77;;
53313;SDS011;39202;51.468;7.146;2023-02-15T12:47:02;1.95;;;1.85;;
53313;SDS011;39202;51.468;7.146;2023-02-15T12:52:10;1.90;;;1.80;;
53313;SDS011;39202;51.468;7.146;2023-02-15T12:57:26;2.00;;;1.90;;
53313;SDS011;39202;51.468;7.146;2023-02-15T13:02:34;1.75;;;1.65;;
53313;SDS011;39202;51.468;7.146;2023-02-15T13:07:37;1.88;;;1.77;;
53313;SDS011;39202;51.468;7.146;2023-02-15T13:12:39;2.53;;;2.33;;
53313;SDS011;39202;51.468;7.146;2023-02-15T13:17:48;4.00;;;3.55;;
53313;SDS011;39202;51.468;7.146;2023-02-15T13:22:50;4.57;;;3.80;;
53313;SDS011;39202;51.468;7.146;2023-02-15T13:27:56;4.07;;;3.67;;
53313;SDS011;39202;51.468;7.146;2023-02-15T13:33:03;4.35;;;3.78;;
53313;SDS011;39202;51.468;7.146;2023-02-15T13:38:11;4.95;;;4.10;;
53313;SDS011;39202;51.468;7.146;2023-02-15T13:43:25;5.13;;;4.22;;
53313;SDS011;39202;51.468;7.146;2023-02-15T13:48:40;4.70;;;4.20;;
53313;SDS011;39202;51.468;7.146;2023-02-15T13:59:27;6.57;;;5.00;;
53313;SDS011;39202;51.468;7.146;2023-02-15T14:04:52;6.47;;;5.03;;
53313;SDS011;39202;51.468;7.146;2023-02-15T14:10:06;6.57;;;5.00;;
53313;SDS011;39202;51.468;7.146;2023-02-15T14:15:26;6.65;;;4.50;;
53313;SDS011;39202;51.468;7.146;2023-02-15T14:20:41;8.82;;;6.80;;
53313;SDS011;39202;51.468;7.146;2023-02-15T14:25:51;5.22;;;4.65;;
53313;SDS011;39202;51.468;7.146;2023-02-15T14:30:58;4.07;;;3.58;;
53313;SDS011;39202;51.468;7.146;2023-02-15T14:36:01;3.85;;;3.38;;
53313;SDS011;39202;51.468;7.146;2023-02-15T14:41:07;3.33;;;3.03;;
53313;SDS011;39202;51.468;7.146;2023-02-15T14:46:16;3.28;;;2.97;;
53313;SDS011;39202;51.468;7.146;2023-02-15T15:02:24;3.47;;;2.53;;
53313;SDS011;39202;51.468;7.146;2023-02-15T15:07:35;2.55;;;2.35;;
53313;SDS011;39202;51.468;7.146;2023-02-15T15:12:42;2.30;;;2.20;;
53313;SDS011;39202;51.468;7.146;2023-02-15T15:28:53;3.65;;;2.33;;
53313;SDS011;39202;51.468;7.146;2023-02-15T15:39:32;2.83;;;2.28;;
53313;SDS011;39202;51.468;7.146;2023-02-15T15:45:08;2.30;;;2.10;;
53313;SDS011;39202;51.468;7.146;2023-02-15T15:50:30;3.25;;;2.00;;
53313;SDS011;39202;51.468;7.146;2023-02-15T15:55:34;2.28;;;2.10;;
53313;SDS011;39202;51.468;7.146;2023-02-15T16:00:37;2.28;;;2.15;;
53313;SDS011;39202;51.468;7.146;2023-02-15T16:05:42;1.95;;;1.85;;
53313;SDS011;39202;51.468;7.146;2023-02-15T16:10:45;1.75;;;1.65;;
53313;SDS011;39202;51.468;7.146;2023-02-15T16:15:47;1.80;;;1.70;;
53313;SDS011;39202;51.468;7.146;2023-02-15T16:20:53;2.00;;;1.80;;
53313;SDS011;39202;51.468;7.146;2023-02-15T16:26:00;1.90;;;1.80;;
53313;SDS011;39202;51.468;7.146;2023-02-15T16:31:10;1.65;;;1.55;;
53313;SDS011;39202;51.468;7.146;2023-02-15T16:36:19;1.83;;;1.73;;
53313;SDS011;39202;51.468;7.146;2023-02-15T16:41:23;1.88;;;1.77;;
53313;SDS011;39202;51.468;7.146;2023-02-15T16:46:28;1.70;;;1.60;;
53313;SDS011;39202;51.468;7.146;2023-02-15T16:51:33;1.60;;;1.50;;
53313;SDS011;39202;51.468;7.146;2023-02-15T16:56:37;1.90;;;1.60;;
53313;SDS011;39202;51.468;7.146;2023-02-15T17:01:44;2.42;;;1.50;;
53313;SDS011;39202;51.468;7.146;2023-02-15T17:06:54;1.60;;;1.50;;
53313;SDS011;39202;51.468;7.146;2023-02-15T17:12:01;1.65;;;1.55;;
53313;SDS011;39202;51.468;7.146;2023-02-15T17:17:05;1.90;;;1.50;;
53313;SDS011;39202;51.468;7.146;2023-02-15T17:22:14;1.70;;;1.60;;
53313;SDS011;39202;51.468;7.146;2023-02-15T17:27:22;1.50;;;1.50;;
53313;SDS011;39202;51.468;7.146;2023-02-15T17:32:26;2.35;;;2.00;;
53313;SDS011;39202;51.468;7.146;2023-02-15T17:37:30;1.90;;;1.80;;
53313;SDS011;39202;51.468;7.146;2023-02-15T17:42:43;1.80;;;1.70;;
53313;SDS011;39202;51.468;7.146;2023-02-15T17:47:45;1.80;;;1.70;;
53313;SDS011;39202;51.468;7.146;2023-02-15T17:52:49;2.15;;;1.98;;
53313;SDS011;39202;51.468;7.146;2023-02-15T17:57:53;2.17;;;1.98;;
53313;SDS011;39202;51.468;7.146;2023-02-15T18:02:54;1.90;;;1.80;;
53313;SDS011;39202;51.468;7.146;2023-02-15T18:08:14;2.58;;;2.10;;
53313;SDS011;39202;51.468;7.146;2023-02-15T18:13:37;2.53;;;2.33;;
53313;SDS011;39202;51.468;7.146;2023-02-15T18:18:39;2.13;;;1.92;;
53313;SDS011;39202;51.468;7.146;2023-02-15T18:23:40;2.58;;;2.08;;
53313;SDS011;39202;51.468;7.146;2023-02-15T18:28:44;2.83;;;2.10;;
53313;SDS011;39202;51.468;7.146;2023-02-15T18:33:46;2.53;;;2.10;;
53313;SDS011;39202;51.468;7.146;2023-02-15T18:38:50;2.42;;;2.22;;
53313;SDS011;39202;51.468;7.146;2023-02-15T18:43:54;2.30;;;2.10;;
53313;SDS011;39202;51.468;7.146;2023-02-15T18:48:56;1.85;;;1.75;;
53313;SDS011;39202;51.468;7.146;2023-02-15T18:53:58;2.83;;;1.98;;
53313;SDS011;39202;51.468;7.146;2023-02-15T18:59:02;2.25;;;2.05;;
53313;SDS011;39202;51.468;7.146;2023-02-15T19:04:03;1.80;;;1.70;;
53313;SDS011;39202;51.468;7.146;2023-02-15T19:09:05;1.95;;;1.85;;
53313;SDS011;39202;51.468;7.146;2023-02-15T19:14:14;2.28;;;2.10;;
53313;SDS011;39202;51.468;7.146;2023-02-15T19:19:24;2.72;;;2.08;;
53313;SDS011;39202;51.468;7.146;2023-02-15T19:24:28;2.17;;;1.90;;
53313;SDS011;39202;51.468;7.146;2023-02-15T19:29:39;2.47;;;2.20;;
53313;SDS011;39202;51.468;7.146;2023-02-15T19:34:41;2.10;;;2.00;;
53313;SDS011;39202;51.468;7.146;2023-02-15T19:39:43;2.25;;;2.05;;
53313;SDS011;39202;51.468;7.146;2023-02-15T19:44:46;2.15;;;1.92;;
53313;SDS011;39202;51.468;7.146;2023-02-15T19:49:47;1.85;;;1.75;;
53313;SDS011;39202;51.468;7.146;2023-02-15T19:54:49;2.00;;;1.90;;
53313;SDS011;39202;51.468;7.146;2023-02-15T19:59:55;1.90;;;1.80;;
53313;SDS011;39202;51.468;7.146;2023-02-15T20:04:57;2.20;;;2.10;;
53313;SDS011;39202;51.468;7.146;2023-02-15T20:09:59;1.90;;;1.80;;
53313;SDS011;39202;51.468;7.146;2023-02-15T20:15:04;2.45;;;1.92;;
53313;SDS011;39202;51.468;7.146;2023-02-15T20:20:17;2.08;;;1.88;;
53313;SDS011;39202;51.468;7.146;2023-02-15T20:25:20;2.28;;;2.10;;
53313;SDS011;39202;51.468;7.146;2023-02-15T20:30:27;2.15;;;1.95;;
53313;SDS011;39202;51.468;7.146;2023-02-15T20:35:30;2.30;;;2.10;;
53313;SDS011;39202;51.468;7.146;2023-02-15T20:40:33;2.28;;;2.10;;
53313;SDS011;39202;51.468;7.146;2023-02-15T20:45:37;2.03;;;1.92;;
53313;SDS011;39202;51.468;7.146;2023-02-15T20:50:39;2.05;;;1.95;;
53313;SDS011;39202;51.468;7.146;2023-02-15T20:55:40;2.58;;;2.15;;
53313;SDS011;39202;51.468;7.146;2023-02-15T21:00:43;2.20;;;2.05;;
53313;SDS011;39202;51.468;7.146;2023-02-15T21:05:45;2.00;;;1.90;;
53313;SDS011;39202;51.468;7.146;2023-02-15T21:10:49;2.20;;;2.10;;
53313;SDS011;39202;51.468;7.146;2023-02-15T21:15:54;2.35;;;2.22;;
53313;SDS011;39202;51.468;7.146;2023-02-15T21:20:56;2.20;;;2.10;;
53313;SDS011;39202;51.468;7.146;2023-02-15T21:25:59;2.22;;;2.13;;
53313;SDS011;39202;51.468;7.146;2023-02-15T21:31:04;2.22;;;2.13;;
53313;SDS011;39202;51.468;7.146;2023-02-15T21:36:12;2.05;;;1.95;;
53313;SDS011;39202;51.468;7.146;2023-02-15T21:41:16;2.30;;;2.20;;
53313;SDS011;39202;51.468;7.146;2023-02-15T21:46:38;1.95;;;1.85;;
53313;SDS011;39202;51.468;7.146;2023-02-15T21:51:57;2.05;;;1.95;;
53313;SDS011;39202;51.468;7.146;2023-02-15T21:57:14;2.50;;;2.28;;
53313;SDS011;39202;51.468;7.146;2023-02-15T22:02:25;2.08;;;1.98;;
53313;SDS011;39202;51.468;7.146;2023-02-15T22:07:29;2.38;;;2.10;;
53313;SDS011;39202;51.468;7.146;2023-02-15T22:12:31;2.17;;;2.08;;
53313;SDS011;39202;51.468;7.146;2023-02-15T22:17:34;2.33;;;2.20;;
53313;SDS011;39202;51.468;7.146;2023-02-15T22:22:36;2.20;;;2.10;;
53313;SDS011;39202;51.468;7.146;2023-02-15T22:27:38;2.20;;;2.10;;
53313;SDS011;39202;51.468;7.146;2023-02-15T22:32:43;2.25;;;2.15;;
53313;SDS011;39202;51.468;7.146;2023-02-15T22:37:45;2.03;;;1.92;;
53313;SDS011;39202;51.468;7.146;2023-02-15T22:42:47;2.28;;;2.08;;
53313;SDS011;39202;51.468;7.146;2023-02-15T22:47:52;2.28;;;2.17;;
53313;SDS011;39202;51.468;7.146;2023-02-15T22:52:57;2.17;;;2.08;;
53313;SDS011;39202;51.468;7.146;2023-02-15T22:58:00;1.90;;;1.80;;
53313;SDS011;39202;51.468;7.146;2023-02-15T23:03:08;2.50;;;2.30;;
53313;SDS011;39202;51.468;7.146;2023-02-15T23:08:15;1.90;;;1.80;;
53313;SDS011;39202;51.468;7.146;2023-02-15T23:13:18;2.13;;;1.92;;
53313;SDS011;39202;51.468;7.146;2023-02-15T23:18:25;2.10;;;2.00;;
53313;SDS011;39202;51.468;7.146;2023-02-15T23:23:30;2.28;;;2.17;;
53313;SDS011;39202;51.468;7.146;2023-02-15T23:28:34;2.45;;;2.25;;
53313;SDS011;39202;51.468;7.146;2023-02-15T23:33:38;2.30;;;2.10;;
53313;SDS011;39202;51.468;7.146;2023-02-15T23:38:40;2.30;;;2.15;;
53313;SDS011;39202;51.468;7.146;2023-02-15T23:43:42;2.15;;;2.05;;
53313;SDS011;39202;51.468;7.146;2023-02-15T23:48:48;2.30;;;2.10;;
53313;SDS011;39202;51.468;7.146;2023-02-15T23:53:49;2.30;;;2.20;;
53313;SDS011;39202;51.468;7.146;2023-02-15T23:58:51;2.17;;;2.08;;
